createdAt,value
2023-04-16T00:00:12.787Z,5.30
2023-04-16T00:02:41.352Z,5.30
2023-04-16T00:05:10.973Z,5.20
2023-04-16T00:07:39.489Z,5.30
2023-04-16T00:10:10.694Z,5.30
2023-04-16T00:12:39.220Z,5.30
2023-04-16T00:15:10.408Z,5.30
2023-04-16T00:17:39.080Z,5.40
2023-04-16T00:20:10.099Z,5.40
2023-04-16T00:22:38.609Z,5.40
2023-04-16T00:25:07.878Z,5.40
2023-04-16T00:27:36.609Z,5.30
2023-04-16T00:30:06.030Z,5.30
2023-04-16T00:32:36.146Z,5.30
2023-04-16T00:35:04.888Z,5.30
2023-04-16T00:37:33.445Z,5.40
2023-04-16T00:40:03.161Z,5.30
2023-04-16T00:42:31.622Z,5.30
2023-04-16T00:45:00.031Z,5.30
2023-04-16T00:47:29.126Z,5.40
2023-04-16T00:49:59.001Z,5.40
2023-04-16T00:52:27.873Z,5.40
2023-04-16T00:54:56.518Z,5.40
2023-04-16T00:57:24.972Z,5.40
2023-04-16T00:59:53.512Z,5.40
2023-04-16T01:02:22.186Z,5.40
2023-04-16T01:04:50.706Z,5.40
2023-04-16T01:07:20.552Z,5.40
2023-04-16T01:09:49.025Z,5.40
2023-04-16T01:12:17.441Z,5.30
2023-04-16T01:14:46.074Z,5.40
2023-04-16T01:17:14.513Z,5.40
2023-04-16T01:19:43.699Z,5.40
2023-04-16T01:22:13.530Z,5.40
2023-04-16T01:24:41.926Z,5.40
2023-04-16T01:27:10.391Z,5.40
2023-04-16T01:29:38.982Z,5.40
2023-04-16T01:32:07.818Z,5.40
2023-04-16T01:34:36.304Z,5.30
2023-04-16T01:37:05.524Z,5.30
2023-04-16T01:39:35.663Z,5.30
2023-04-16T01:42:04.114Z,5.40
2023-04-16T01:44:32.574Z,5.40
2023-04-16T01:47:01.568Z,5.30
2023-04-16T01:49:31.014Z,5.30
2023-04-16T01:51:59.415Z,5.30
2023-04-16T01:54:27.878Z,5.30
2023-04-16T01:56:57.680Z,5.30
2023-04-16T01:59:26.333Z,5.30
2023-04-16T02:01:55.300Z,5.30
2023-04-16T02:04:24.094Z,5.30
2023-04-16T02:06:52.489Z,5.30
2023-04-16T02:09:21.101Z,5.30
2023-04-16T02:11:49.533Z,5.30
2023-04-16T02:14:19.327Z,5.30
2023-04-16T02:16:47.938Z,5.30
2023-04-16T02:19:16.455Z,5.30
2023-04-16T02:21:44.876Z,5.30
2023-04-16T02:24:13.379Z,5.30
2023-04-16T02:26:42.476Z,5.30
2023-04-16T02:29:11.066Z,5.30
2023-04-16T02:31:41.167Z,5.30
2023-04-16T02:34:09.745Z,5.40
2023-04-16T02:36:38.232Z,5.40
2023-04-16T02:39:06.886Z,5.40
2023-04-16T02:41:35.618Z,5.40
2023-04-16T02:44:04.282Z,5.40
2023-04-16T02:46:32.701Z,5.40
2023-04-16T02:49:03.032Z,5.40
2023-04-16T02:51:33.263Z,5.40
2023-04-16T02:54:03.414Z,5.40
2023-04-16T02:56:31.811Z,5.40
2023-04-16T02:59:00.257Z,5.40
2023-04-16T03:01:29.300Z,5.40
2023-04-16T03:03:57.811Z,5.40
2023-04-16T03:06:27.641Z,5.40
2023-04-16T03:08:56.101Z,5.30
2023-04-16T03:11:25.012Z,5.40
2023-04-16T03:13:53.911Z,5.30
2023-04-16T03:16:22.420Z,5.30
2023-04-16T03:18:51.027Z,5.30
2023-04-16T03:21:19.577Z,5.30
2023-04-16T03:23:49.384Z,5.30
2023-04-16T03:26:17.847Z,5.30
2023-04-16T03:28:46.513Z,5.20
2023-04-16T03:31:15.010Z,5.20
2023-04-16T03:33:43.877Z,5.20
2023-04-16T03:36:12.368Z,5.20
2023-04-16T03:38:41.003Z,5.20
2023-04-16T03:41:10.955Z,5.10
2023-04-16T03:43:39.412Z,5.10
2023-04-16T03:46:07.948Z,5.10
2023-04-16T03:48:36.526Z,5.10
2023-04-16T03:51:05.720Z,5.10
2023-04-16T03:53:34.185Z,5.10
2023-04-16T03:56:02.651Z,5.10
2023-04-16T03:58:32.463Z,5.00
2023-04-16T04:01:00.876Z,5.00
2023-04-16T04:03:29.551Z,5.00
2023-04-16T04:05:58.311Z,5.00
2023-04-16T04:08:27.024Z,5.00
2023-04-16T04:10:55.448Z,5.10
2023-04-16T04:13:23.896Z,5.10
2023-04-16T04:15:53.735Z,5.10
2023-04-16T04:18:22.202Z,5.10
2023-04-16T04:20:50.671Z,5.10
2023-04-16T04:23:19.166Z,5.10
2023-04-16T04:25:48.237Z,5.10
2023-04-16T04:28:16.879Z,5.10
2023-04-16T04:30:45.337Z,5.10
2023-04-16T04:33:15.181Z,5.10
2023-04-16T04:35:43.645Z,5.10
2023-04-16T04:38:13.653Z,5.10
2023-04-16T04:40:44.038Z,5.20
2023-04-16T04:43:12.714Z,5.20
2023-04-16T04:45:41.527Z,5.10
2023-04-16T04:48:09.975Z,5.10
2023-04-16T04:50:40.943Z,5.10
2023-04-16T04:53:11.098Z,5.10
2023-04-16T04:55:39.852Z,5.10
2023-04-16T04:58:09.429Z,5.10
2023-04-16T05:00:37.910Z,5.10
2023-04-16T05:03:09.843Z,5.10
2023-04-16T05:05:40.225Z,5.10
2023-04-16T05:08:08.806Z,5.10
2023-04-16T05:10:37.279Z,5.10
2023-04-16T05:13:06.042Z,5.10
2023-04-16T05:15:34.483Z,5.10
2023-04-16T05:18:02.996Z,5.10
2023-04-16T05:20:31.708Z,5.20
2023-04-16T05:23:01.489Z,5.20
2023-04-16T05:25:30.065Z,5.30
2023-04-16T05:27:58.474Z,5.30
2023-04-16T05:30:26.924Z,5.30
2023-04-16T05:32:55.401Z,5.40
2023-04-16T05:35:23.883Z,5.40
2023-04-16T05:37:52.297Z,5.40
2023-04-16T05:40:22.271Z,5.40
2023-04-16T05:42:50.680Z,5.50
2023-04-16T05:45:19.380Z,5.60
2023-04-16T05:47:47.830Z,5.60
2023-04-16T05:50:16.651Z,5.50
2023-04-16T05:52:45.303Z,5.60
2023-04-16T05:55:13.843Z,5.60
2023-04-16T05:57:43.895Z,5.60
2023-04-16T06:00:13.133Z,5.60
2023-04-16T06:02:42.010Z,5.60
2023-04-16T06:05:11.005Z,5.60
2023-04-16T06:07:39.691Z,5.60
2023-04-16T06:10:09.171Z,5.60
2023-04-16T06:12:37.818Z,5.50
2023-04-16T06:15:09.722Z,5.60
2023-04-16T06:17:38.405Z,5.60
2023-04-16T06:20:08.663Z,5.60
2023-04-16T06:22:37.384Z,5.60
2023-04-16T06:25:06.947Z,5.50
2023-04-16T06:27:35.487Z,5.50
2023-04-16T06:30:04.006Z,5.50
2023-04-16T06:32:33.872Z,5.60
2023-04-16T06:35:02.596Z,5.50
2023-04-16T06:37:31.241Z,5.50
2023-04-16T06:39:59.801Z,5.50
2023-04-16T06:42:28.336Z,5.50
2023-04-16T06:44:56.822Z,5.60
2023-04-16T06:47:25.368Z,5.60
2023-04-16T06:49:55.271Z,5.60
2023-04-16T06:52:23.968Z,5.60
2023-04-16T06:54:52.429Z,5.60
2023-04-16T06:57:20.859Z,5.60
2023-04-16T06:59:49.558Z,5.60
2023-04-16T07:02:18.090Z,5.60
2023-04-16T07:04:46.694Z,5.60
2023-04-16T07:07:16.495Z,5.60
2023-04-16T07:09:45.207Z,5.60
2023-04-16T07:12:13.701Z,5.60
2023-04-16T07:14:42.550Z,5.60
2023-04-16T07:17:11.025Z,5.60
2023-04-16T07:19:39.535Z,5.70
2023-04-16T07:22:08.121Z,5.70
2023-04-16T07:24:38.207Z,5.70
2023-04-16T07:27:07.008Z,5.70
2023-04-16T07:29:35.634Z,5.80
2023-04-16T07:32:04.154Z,5.80
2023-04-16T07:34:32.626Z,5.80
2023-04-16T07:37:01.088Z,5.80
2023-04-16T07:39:29.506Z,5.80
2023-04-16T07:41:59.312Z,5.80
2023-04-16T07:44:28.047Z,5.80
2023-04-16T07:46:56.519Z,5.70
2023-04-16T07:49:25.090Z,5.80
2023-04-16T07:51:53.597Z,5.70
2023-04-16T07:54:22.042Z,5.70
2023-04-16T07:56:50.578Z,5.70
2023-04-16T07:59:23.502Z,5.60
2023-04-16T08:01:55.040Z,5.60
2023-04-16T08:04:26.273Z,5.70
2023-04-16T08:06:55.729Z,5.70
2023-04-16T08:09:27.401Z,5.70
2023-04-16T08:11:56.099Z,5.70
2023-04-16T08:14:26.141Z,5.70
2023-04-16T08:16:54.635Z,5.70
2023-04-16T08:19:23.095Z,5.80
2023-04-16T08:21:51.579Z,5.80
2023-04-16T08:24:20.013Z,5.80
2023-04-16T08:26:48.681Z,5.90
2023-04-16T08:29:17.183Z,5.90
2023-04-16T08:31:50.141Z,5.90
2023-04-16T08:34:19.085Z,6.00
2023-04-16T08:36:47.560Z,6.00
2023-04-16T08:39:16.232Z,6.10
2023-04-16T08:41:47.992Z,6.10
2023-04-16T08:44:22.673Z,6.00
2023-04-16T08:46:57.393Z,6.00
2023-04-16T08:49:27.061Z,6.00
2023-04-16T08:51:57.328Z,6.00
2023-04-16T08:54:38.267Z,6.00
2023-04-16T08:57:08.803Z,6.10
2023-04-16T08:59:38.279Z,6.10
2023-04-16T09:02:08.285Z,6.20
2023-04-16T09:04:40.158Z,6.20
2023-04-16T09:07:10.862Z,6.10
2023-04-16T09:09:40.526Z,6.10
2023-04-16T09:12:10.084Z,6.00
2023-04-16T09:14:42.095Z,6.00
2023-04-16T09:17:14.160Z,6.00
2023-04-16T09:19:42.878Z,6.10
2023-04-16T09:22:11.348Z,6.00
2023-04-16T09:24:40.023Z,5.90
2023-04-16T09:27:09.818Z,5.90
2023-04-16T09:29:40.513Z,5.90
2023-04-16T09:32:12.424Z,6.00
2023-04-16T09:34:57.746Z,6.00
2023-04-16T09:37:27.533Z,6.10
2023-04-16T09:39:59.401Z,6.10
2023-04-16T09:42:29.717Z,6.10
2023-04-16T09:45:00.762Z,6.00
2023-04-16T09:47:43.792Z,6.00
2023-04-16T09:50:18.252Z,5.90
2023-04-16T09:52:51.665Z,6.00
2023-04-16T09:55:24.932Z,6.10
2023-04-16T09:58:01.103Z,6.10
2023-04-16T10:00:31.895Z,6.10
2023-04-16T10:03:08.678Z,6.20
2023-04-16T10:05:37.515Z,6.30
2023-04-16T10:08:14.358Z,6.30
2023-04-16T10:10:43.327Z,6.20
2023-04-16T10:13:12.837Z,6.20
2023-04-16T10:15:42.067Z,6.30
2023-04-16T10:18:12.318Z,6.30
2023-04-16T10:20:40.869Z,6.30
2023-04-16T10:23:09.609Z,6.30
2023-04-16T10:25:39.462Z,6.30
2023-04-16T10:28:09.905Z,6.30
2023-04-16T10:30:39.010Z,6.30
2023-04-16T10:33:09.193Z,6.40
2023-04-16T10:35:42.295Z,6.50
2023-04-16T10:38:24.313Z,6.40
2023-04-16T10:41:00.024Z,6.40
2023-04-16T10:43:29.983Z,6.30
2023-04-16T10:45:58.908Z,6.30
2023-04-16T10:48:31.011Z,6.40
2023-04-16T10:51:08.671Z,6.50
2023-04-16T10:53:38.920Z,6.50
2023-04-16T10:56:14.130Z,6.40
2023-04-16T10:58:43.116Z,6.50
2023-04-16T11:01:16.945Z,6.50
2023-04-16T11:03:48.852Z,6.60
2023-04-16T11:06:26.196Z,6.60
2023-04-16T11:08:55.465Z,6.70
2023-04-16T11:11:24.800Z,6.80
2023-04-16T11:13:57.991Z,6.70
2023-04-16T11:16:28.184Z,6.80
2023-04-16T11:18:58.285Z,6.80
2023-04-16T11:21:28.712Z,6.90
2023-04-16T11:23:59.213Z,7.00
2023-04-16T11:26:30.738Z,7.00
2023-04-16T11:29:00.300Z,7.00
2023-04-16T11:31:29.007Z,7.00
2023-04-16T11:33:59.482Z,7.00
2023-04-16T11:36:32.392Z,7.00
2023-04-16T11:39:04.683Z,7.10
2023-04-16T11:41:33.100Z,7.10
2023-04-16T11:44:01.691Z,7.00
2023-04-16T11:46:45.003Z,7.00
2023-04-16T11:49:13.881Z,6.80
2023-04-16T11:51:44.993Z,6.70
2023-04-16T11:54:21.528Z,6.70
2023-04-16T11:56:52.826Z,6.90
2023-04-16T11:59:24.145Z,6.80
2023-04-16T12:01:55.727Z,6.80
2023-04-16T12:04:27.063Z,6.70
2023-04-16T12:07:14.683Z,6.60
2023-04-16T12:09:44.887Z,6.60
2023-04-16T12:12:27.863Z,6.60
2023-04-16T12:14:57.094Z,6.60
2023-04-16T12:17:26.337Z,6.60
2023-04-16T12:19:59.037Z,6.50
2023-04-16T12:22:36.603Z,6.50
2023-04-16T12:25:07.728Z,6.40
2023-04-16T12:27:47.959Z,6.30
2023-04-16T12:30:18.835Z,6.30
2023-04-16T12:32:50.733Z,6.30
2023-04-16T12:35:32.491Z,6.10
2023-04-16T12:38:03.629Z,6.00
2023-04-16T12:40:32.463Z,6.10
2023-04-16T12:43:00.994Z,6.10
2023-04-16T12:45:29.675Z,6.10
2023-04-16T12:47:58.170Z,6.10
2023-04-16T12:50:28.489Z,6.20
2023-04-16T12:52:57.804Z,6.20
2023-04-16T12:55:27.752Z,6.20
2023-04-16T12:57:56.464Z,6.20
2023-04-16T13:00:25.079Z,6.30
2023-04-16T13:02:53.629Z,6.30
2023-04-16T13:05:22.374Z,6.30
2023-04-16T13:07:50.966Z,6.30
2023-04-16T13:10:19.514Z,6.30
2023-04-16T13:12:49.339Z,6.30
2023-04-16T13:15:17.958Z,6.40
2023-04-16T13:20:36.030Z,6.20
2023-04-16T13:23:05.535Z,6.20
2023-04-16T13:25:34.232Z,6.20
2023-04-16T13:28:04.026Z,6.20
2023-04-16T13:30:33.493Z,6.20
2023-04-16T13:33:02.526Z,6.20
2023-04-16T13:35:32.185Z,6.20
2023-04-16T13:38:00.915Z,6.20
2023-04-16T13:40:29.568Z,6.20
2023-04-16T13:42:58.284Z,6.20
2023-04-16T13:45:29.201Z,6.20
2023-04-16T13:47:57.746Z,6.20
2023-04-16T13:50:26.507Z,6.20
2023-04-16T13:52:54.977Z,6.10
2023-04-16T13:55:23.813Z,6.00
2023-04-16T13:57:53.383Z,6.00
2023-04-16T14:00:24.858Z,6.00
2023-04-16T14:02:55.001Z,6.10
2023-04-16T14:05:26.941Z,6.10
2023-04-16T14:07:55.743Z,6.10
2023-04-16T14:10:24.639Z,6.20
2023-04-16T14:12:53.451Z,6.20
2023-04-16T14:15:22.089Z,6.20
2023-04-16T14:17:50.910Z,6.20
2023-04-16T14:20:20.978Z,6.10
2023-04-16T14:22:49.806Z,6.10
2023-04-16T14:25:18.557Z,6.00
2023-04-16T14:27:47.018Z,6.00
2023-04-16T14:30:16.673Z,6.10
2023-04-16T14:32:45.238Z,6.10
2023-04-16T14:35:13.791Z,6.20
2023-04-16T14:37:44.721Z,6.20
2023-04-16T14:40:14.118Z,6.20
2023-04-16T14:42:42.830Z,6.20
2023-04-16T14:45:11.682Z,6.20
2023-04-16T14:47:46.102Z,6.20
2023-04-16T14:50:15.794Z,6.20
2023-04-16T14:52:45.775Z,6.30
2023-04-16T14:55:14.255Z,6.30
2023-04-16T14:57:42.823Z,6.30
2023-04-16T15:00:13.698Z,6.30
2023-04-16T15:02:42.437Z,6.30
2023-04-16T15:05:11.560Z,6.30
2023-04-16T15:07:39.987Z,6.30
2023-04-16T15:10:12.696Z,6.30
2023-04-16T15:12:41.542Z,6.30
2023-04-16T15:15:11.476Z,6.30
2023-04-16T15:17:40.261Z,6.30
2023-04-16T15:20:11.053Z,6.30
2023-04-16T15:22:39.838Z,6.30
2023-04-16T15:25:10.808Z,6.30
2023-04-16T15:27:39.479Z,6.30
2023-04-16T15:30:09.753Z,6.20
2023-04-16T15:32:38.501Z,6.20
2023-04-16T15:35:09.122Z,6.20
2023-04-16T15:37:40.078Z,6.30
2023-04-16T15:40:11.043Z,6.30
2023-04-16T15:42:40.643Z,6.30
2023-04-16T15:45:10.210Z,6.30
2023-04-16T15:47:40.896Z,6.30
2023-04-16T15:50:10.784Z,6.30
2023-04-16T15:52:39.499Z,6.20
2023-04-16T15:55:10.073Z,6.30
2023-04-16T15:57:38.521Z,6.30
2023-04-16T16:00:14.700Z,6.20
2023-04-16T16:02:44.829Z,6.20
2023-04-16T16:05:15.369Z,6.20
2023-04-16T16:07:44.772Z,6.20
2023-04-16T16:10:15.654Z,6.30
2023-04-16T16:12:44.098Z,6.30
2023-04-16T16:15:12.759Z,6.30
2023-04-16T16:17:41.378Z,6.30
2023-04-16T16:20:11.051Z,6.20
2023-04-16T16:22:40.663Z,6.20
2023-04-16T16:25:10.277Z,6.30
2023-04-16T16:27:40.755Z,6.30
2023-04-16T16:30:11.276Z,6.30
2023-04-16T16:32:41.089Z,6.20
2023-04-16T16:35:10.997Z,6.10
2023-04-16T16:37:39.832Z,6.20
2023-04-16T16:40:09.779Z,6.20
2023-04-16T16:42:39.672Z,6.20
2023-04-16T16:45:10.141Z,6.20
2023-04-16T16:47:38.597Z,6.20
2023-04-16T16:50:11.650Z,6.30
2023-04-16T16:52:40.160Z,6.30
2023-04-16T16:55:11.356Z,6.30
2023-04-16T16:57:41.818Z,6.30
2023-04-16T17:00:15.960Z,6.30
2023-04-16T17:02:44.724Z,6.30
2023-04-16T17:05:14.137Z,6.40
2023-04-16T17:07:42.556Z,6.40
2023-04-16T17:10:13.703Z,6.40
2023-04-16T17:12:43.606Z,6.40
2023-04-16T17:15:13.547Z,6.30
2023-04-16T17:17:42.009Z,6.40
2023-04-16T17:20:12.554Z,5.70
2023-04-16T17:22:41.359Z,6.40
2023-04-16T17:25:10.595Z,6.40
2023-04-16T17:27:39.702Z,6.40
2023-04-16T17:30:11.308Z,6.30
2023-04-16T17:32:39.838Z,6.30
2023-04-16T17:35:10.044Z,6.20
2023-04-16T17:37:38.861Z,6.20
2023-04-16T17:40:10.121Z,6.20
2023-04-16T17:42:38.970Z,6.20
2023-04-16T17:45:10.229Z,6.20
2023-04-16T17:47:39.072Z,6.20
2023-04-16T17:50:09.915Z,6.20
2023-04-16T17:52:38.684Z,6.20
2023-04-16T17:55:08.491Z,6.20
2023-04-16T17:57:37.362Z,6.20
2023-04-16T18:00:10.411Z,6.20
2023-04-16T18:02:41.020Z,6.20
2023-04-16T18:05:10.427Z,6.20
2023-04-16T18:07:39.108Z,6.20
2023-04-16T18:10:10.183Z,6.20
2023-04-16T18:12:38.690Z,6.20
2023-04-16T18:15:08.629Z,6.20
2023-04-16T18:17:37.160Z,6.10
2023-04-16T18:20:11.650Z,6.20
2023-04-16T18:22:40.098Z,6.20
2023-04-16T18:25:09.339Z,6.20
2023-04-16T18:27:37.921Z,6.20
2023-04-16T18:30:15.572Z,6.20
2023-04-16T18:33:06.893Z,6.20
2023-04-16T18:35:37.302Z,6.20
2023-04-16T18:38:05.739Z,6.20
2023-04-16T18:40:36.244Z,6.20
2023-04-16T18:43:05.014Z,6.20
2023-04-16T18:48:22.468Z,6.20
2023-04-16T18:50:52.312Z,6.30
2023-04-16T18:53:21.320Z,6.20
2023-04-16T18:55:54.360Z,6.30
2023-04-16T18:58:23.247Z,6.30
2023-04-16T19:00:54.902Z,6.30
2023-04-16T19:03:23.326Z,6.30
2023-04-16T19:05:53.870Z,6.20
2023-04-16T19:08:22.367Z,6.20
2023-04-16T19:10:51.264Z,6.20
2023-04-16T19:13:19.899Z,6.20
2023-04-16T19:15:48.364Z,6.20
2023-04-16T19:18:16.842Z,6.20
2023-04-16T19:20:45.322Z,6.20
2023-04-16T19:23:15.428Z,6.20
2023-04-16T19:25:43.832Z,6.20
2023-04-16T19:28:15.541Z,6.20
2023-04-16T19:30:49.851Z,6.20
2023-04-16T19:33:18.294Z,6.20
2023-04-16T19:35:47.578Z,6.20
2023-04-16T19:38:17.430Z,6.20
2023-04-16T19:40:46.838Z,6.20
2023-04-16T19:43:16.192Z,6.20
2023-04-16T19:45:45.288Z,6.20
2023-04-16T19:48:14.582Z,6.10
2023-04-16T19:50:43.602Z,6.10
2023-04-16T19:53:12.561Z,6.10
2023-04-16T19:55:43.280Z,6.10
2023-04-16T19:58:11.826Z,6.00
2023-04-16T20:00:42.111Z,5.90
2023-04-16T20:03:11.325Z,5.90
2023-04-16T20:05:39.849Z,5.90
2023-04-16T20:08:08.443Z,5.90
2023-04-16T20:10:36.890Z,5.90
2023-04-16T20:13:10.030Z,6.00
2023-04-16T20:15:38.646Z,6.00
2023-04-16T20:18:08.583Z,6.10
2023-04-16T20:20:38.007Z,6.10
2023-04-16T20:23:06.705Z,6.00
2023-04-16T20:25:35.165Z,6.00
2023-04-16T20:28:03.603Z,6.10
2023-04-16T20:30:38.827Z,6.00
2023-04-16T20:33:07.867Z,6.00
2023-04-16T20:35:36.498Z,6.00
2023-04-16T20:38:05.194Z,5.90
2023-04-16T20:40:34.123Z,5.90
2023-04-16T20:43:02.885Z,5.80
2023-04-16T20:45:38.146Z,5.80
2023-04-16T20:48:07.072Z,5.90
2023-04-16T20:50:35.757Z,5.90
2023-04-16T20:53:04.170Z,5.90
2023-04-16T20:55:32.822Z,5.90
2023-04-16T20:58:01.224Z,5.90
2023-04-16T21:00:29.884Z,6.00
2023-04-16T21:03:00.029Z,6.00
2023-04-16T21:05:30.102Z,6.00
2023-04-16T21:07:58.522Z,6.00
2023-04-16T21:10:26.949Z,6.00
2023-04-16T21:12:55.877Z,6.00
2023-04-16T21:15:24.422Z,6.00
2023-04-16T21:17:52.901Z,6.00
2023-04-16T21:20:22.832Z,6.10
2023-04-16T21:22:55.150Z,6.00
2023-04-16T21:25:24.044Z,6.00
2023-04-16T21:27:52.646Z,6.00
2023-04-16T21:30:21.572Z,6.00
2023-04-16T21:32:50.721Z,6.00
2023-04-16T21:35:19.390Z,6.00
2023-04-16T21:37:49.237Z,6.00
2023-04-16T21:40:18.205Z,6.00
2023-04-16T21:42:46.673Z,6.00
2023-04-16T21:45:15.640Z,6.00
2023-04-16T21:47:44.183Z,6.00
2023-04-16T21:50:14.050Z,6.00
2023-04-16T21:52:46.156Z,6.00
2023-04-16T21:55:16.254Z,6.00
2023-04-16T21:57:44.930Z,6.00
2023-04-16T22:00:14.663Z,6.00
2023-04-16T22:02:43.448Z,6.00
2023-04-16T22:05:12.666Z,6.00
2023-04-16T22:07:41.593Z,5.90
2023-04-16T22:10:12.381Z,5.90
2023-04-16T22:12:44.867Z,5.90
2023-04-16T22:15:15.424Z,5.90
2023-04-16T22:17:44.079Z,5.90
2023-04-16T22:20:13.418Z,5.90
2023-04-16T22:22:42.936Z,5.90
2023-04-16T22:25:12.306Z,5.90
2023-04-16T22:27:41.089Z,5.90
2023-04-16T22:30:12.538Z,5.90
2023-04-16T22:32:40.997Z,5.90
2023-04-16T22:35:10.807Z,5.90
2023-04-16T22:37:39.250Z,5.90
2023-04-16T22:40:10.871Z,5.90
2023-04-16T22:42:39.345Z,5.90
2023-04-16T22:45:10.243Z,5.90
2023-04-16T22:47:38.902Z,5.90
2023-04-16T22:50:10.833Z,5.90
2023-04-16T22:52:39.547Z,5.90
2023-04-16T22:55:09.144Z,5.90
2023-04-16T22:57:37.834Z,5.90
2023-04-16T23:00:14.792Z,5.90
2023-04-16T23:02:45.774Z,5.90
2023-04-16T23:05:14.302Z,5.90
2023-04-16T23:07:42.793Z,5.90
2023-04-16T23:10:11.893Z,5.90
2023-04-16T23:12:40.622Z,5.90
2023-04-16T23:15:09.779Z,5.90
2023-04-16T23:17:38.370Z,5.90
2023-04-16T23:20:10.156Z,5.90
2023-04-16T23:22:38.671Z,5.90
2023-04-16T23:25:09.016Z,5.90
2023-04-16T23:27:37.517Z,5.90
2023-04-16T23:30:07.719Z,5.90
2023-04-16T23:32:36.315Z,5.90
2023-04-16T23:35:04.967Z,5.90
2023-04-16T23:37:35.429Z,5.90
2023-04-16T23:40:04.697Z,5.80
2023-04-16T23:42:33.140Z,5.80
2023-04-16T23:45:01.573Z,5.80
2023-04-16T23:47:30.031Z,5.80
2023-04-16T23:49:58.477Z,5.80
2023-04-16T23:52:27.199Z,5.80
2023-04-16T23:54:57.205Z,5.80
2023-04-16T23:57:25.669Z,5.80
2023-04-16T23:59:54.350Z,5.80
